Flight Briefing for CPX231

Departure Arrival
Phoenix Sky Harbor International Airport (KPHX)
Click to view FAA NOTAMS
Chicago/Rockford International Airport (KRFD)
Click to view FAA NOTAMS
Departure Time Arrival Time
N/A N/A
Aircraft Distance
B767-300BDSF 1204nm
Departure METAR Arrival METAR
KPHX 251051Z 00000KT 10SM CLR 18/M01 A2978 RMK AO2 SLP070 T01831011 KRFD 251054Z 20007KT 10SM SCT130 BKN170 19/16 A2988 RMK AO2 SLP115 T01940161
Suggested Route
BROAK1 MAXXO ACH J231 LBL J19 ICT J26 IRK J232 MZV PLL


View recent IFR Routes data
Notes



Charts and Procedures

Charts for KPHX
No chart available
Charts for KRFD
No chart available

Windy.com Weather Map